Time;durP1;ratioP1;P1;durP2;ratioP2;P2;SDS_P1;SDS_P2;PMS_P1;PMS_P2;Temp;Humidity;BMP_temperature;BMP_pressure;BME280_temperature;BME280_humidity;BME280_pressure;Samples;Min_cycle;Max_cycle;Signal;HPM_P1;HPM_P2
2022/01/20 00:00:55;;;;;;;28.65;7.95;;;4.40;99.90;;;;;;6145809;23;20747;-89
2022/01/20 00:03:24;;;;;;;29.52;7.95;;;4.20;99.90;;;;;;6145610;23;20729;-89
2022/01/20 00:27:35;;;;;;;16.92;5.93;;;4.20;99.90;;;;;;6147655;23;20243;-89
2022/01/20 00:35:29;;;;;;;25.70;7.82;;;4.20;99.90;;;;;;6148934;23;20157;-88
2022/01/20 00:37:55;;;;;;;17.70;5.45;;;5.70;99.90;;;;;;6171458;23;20199;-88
2022/01/20 00:40:21;;;;;;;22.90;6.00;;;3.10;99.90;;;;;;6178430;23;20157;-87
2022/01/20 00:42:47;;;;;;;15.20;5.25;;;4.10;99.90;;;;;;6177331;23;20232;-88
2022/01/20 00:45:13;;;;;;;36.03;7.50;;;4.10;99.90;;;;;;6152236;23;20207;-88
2022/01/20 00:47:39;;;;;;;24.13;6.00;;;4.10;99.90;;;;;;6150709;23;20588;-89
2022/01/20 00:50:08;;;;;;;24.42;7.10;;;4.10;99.90;;;;;;6179147;23;20152;-88
2022/01/20 00:52:33;;;;;;;22.08;6.93;;;4.10;99.90;;;;;;6152037;23;20611;-88
2022/01/20 00:54:59;;;;;;;24.57;6.27;;;4.10;99.90;;;;;;6153206;23;20290;-88
2022/01/20 00:57:25;;;;;;;17.53;6.27;;;4.10;99.90;;;;;;6178131;23;20231;-89
2022/01/20 00:59:50;;;;;;;24.73;6.27;;;4.20;99.90;;;;;;6152416;23;20160;-88
2022/01/20 01:02:16;;;;;;;21.50;6.73;;;4.00;99.90;;;;;;6150346;23;20622;-89
2022/01/20 01:04:42;;;;;;;30.07;6.93;;;4.20;99.90;;;;;;6151399;23;20156;-89
2022/01/20 01:09:44;;;;;;;22.85;6.50;;;3.50;99.90;;;;;;6189777;23;20140;-89
2022/01/20 01:12:15;;;;;;;17.50;5.57;;;4.00;99.90;;;;;;6171641;23;20400;-90
2022/01/20 01:14:46;;;;;;;19.05;4.95;;;4.20;99.90;;;;;;6180946;23;20150;-89
2022/01/20 01:22:29;;;;;;;16.65;5.85;;;4.10;99.90;;;;;;6198292;23;20401;-88
2022/01/20 01:24:58;;;;;;;29.50;6.00;;;4.20;99.90;;;;;;6186713;23;20258;-88
2022/01/20 01:27:25;;;;;;;22.13;5.50;;;4.20;99.90;;;;;;6153008;23;20183;-88
2022/01/20 01:32:37;;;;;;;19.15;5.60;;;4.20;99.90;;;;;;6179448;23;20162;-87
2022/01/20 01:35:07;;;;;;;18.45;6.07;;;4.10;99.90;;;;;;6178623;23;20158;-87
2022/01/20 01:39:59;;;;;;;24.60;5.90;;;4.00;99.90;;;;;;6185508;23;20179;-87
2022/01/20 01:42:32;;;;;;;18.05;4.93;;;4.30;99.90;;;;;;6199351;23;20159;-88
2022/01/20 01:45:10;;;;;;;21.50;4.90;;;4.00;99.90;;;;;;6202523;23;20128;-89
2022/01/20 01:47:36;;;;;;;24.52;5.60;;;4.70;99.90;;;;;;6172567;23;20180;-88
2022/01/20 01:50:03;;;;;;;23.07;5.43;;;4.30;99.90;;;;;;6179002;23;20504;-88
2022/01/20 01:52:28;;;;;;;19.95;3.95;;;4.40;99.90;;;;;;6151162;23;20473;-87
2022/01/20 01:54:55;;;;;;;22.40;5.07;;;4.30;99.90;;;;;;6178324;23;20148;-88
2022/01/20 01:57:23;;;;;;;16.70;5.00;;;4.30;99.90;;;;;;6150565;23;20163;-89
2022/01/20 01:59:50;;;;;;;39.30;5.88;;;4.20;99.90;;;;;;6155396;23;20218;-87
2022/01/20 02:02:15;;;;;;;18.77;5.20;;;4.20;99.90;;;;;;6177749;23;20156;-88
2022/01/20 02:04:41;;;;;;;19.13;3.27;;;4.20;99.90;;;;;;6177994;23;20218;-88
2022/01/20 02:18:24;;;;;;;21.35;5.07;;;5.70;99.90;;;;;;6179602;23;20171;-88
2022/01/20 02:20:53;;;;;;;17.58;4.25;;;6.50;99.90;;;;;;6151980;23;20153;-86
2022/01/20 02:23:19;;;;;;;19.35;4.65;;;4.10;99.90;;;;;;6179564;23;20153;-87
2022/01/20 02:25:46;;;;;;;18.15;5.72;;;3.90;99.90;;;;;;6177825;23;20157;-88
2022/01/20 02:28:12;;;;;;;15.07;4.07;;;4.00;99.90;;;;;;6179449;23;20144;-87
2022/01/20 02:30:40;;;;;;;12.90;4.57;;;5.30;99.90;;;;;;6151167;23;20463;-88
2022/01/20 02:33:10;;;;;;;18.27;4.15;;;4.30;99.90;;;;;;6180076;23;20667;-87
2022/01/20 02:35:39;;;;;;;12.55;4.32;;;3.40;99.90;;;;;;6178486;23;20163;-88
2022/01/20 02:38:13;;;;;;;15.13;3.15;;;4.80;99.90;;;;;;6181377;23;20555;-88
2022/01/20 02:45:56;;;;;;;16.70;3.97;;;3.90;99.90;;;;;;6182936;23;20179;-88
2022/01/20 02:48:23;;;;;;;15.93;4.23;;;4.80;99.90;;;;;;6154446;23;20504;-88
2022/01/20 02:50:48;;;;;;;20.45;3.33;;;4.20;99.90;;;;;;6152337;23;20470;-89
2022/01/20 02:53:14;;;;;;;12.63;3.93;;;4.10;99.90;;;;;;6153018;23;20242;-88
2022/01/20 02:55:40;;;;;;;8.53;3.27;;;3.80;99.90;;;;;;6152473;23;20466;-89
2022/01/20 02:58:07;;;;;;;16.90;3.90;;;4.30;99.90;;;;;;6154457;23;20152;-89
2022/01/20 03:00:34;;;;;;;7.88;3.30;;;4.30;99.90;;;;;;6181616;23;20235;-88
2022/01/20 03:03:03;;;;;;;15.38;3.42;;;4.20;99.90;;;;;;6157756;23;20179;-89
2022/01/20 03:05:33;;;;;;;15.43;3.80;;;4.30;99.90;;;;;;6152842;23;20215;-89
2022/01/20 03:08:00;;;;;;;13.75;3.63;;;4.90;99.90;;;;;;6159503;23;20160;-89
2022/01/20 03:10:26;;;;;;;9.00;3.97;;;4.30;99.90;;;;;;6188420;23;20156;-89
2022/01/20 03:12:52;;;;;;;14.75;4.22;;;4.30;99.90;;;;;;6187629;23;20159;-86
2022/01/20 03:15:18;;;;;;;12.20;3.30;;;;;;;;;;6184725;23;20171;-88
2022/01/20 03:17:44;;;;;;;15.48;3.88;;;4.20;99.90;;;;;;6152232;23;20941;-88
2022/01/20 03:20:10;;;;;;;20.47;3.63;;;4.00;99.90;;;;;;6151045;23;20190;-89
2022/01/20 03:22:36;;;;;;;18.35;3.20;;;4.00;99.90;;;;;;6152896;23;20156;-89
2022/01/20 03:25:02;;;;;;;11.53;3.63;;;3.90;99.90;;;;;;6153575;23;20175;-89
2022/01/20 03:27:27;;;;;;;22.83;3.57;;;4.00;99.90;;;;;;6177314;23;20634;-89
2022/01/20 03:29:53;;;;;;;10.90;3.43;;;4.00;99.90;;;;;;6189481;23;20399;-89
2022/01/20 03:32:19;;;;;;;11.03;3.10;;;;;;;;;;6179173;23;20223;-89
2022/01/20 03:34:45;;;;;;;16.58;3.40;;;3.90;99.90;;;;;;6153296;23;20243;-89
2022/01/20 03:37:11;;;;;;;11.03;2.43;;;;;;;;;;6152874;23;20570;-90
2022/01/20 03:39:37;;;;;;;9.10;2.88;;;4.00;99.90;;;;;;6159190;23;20171;-90
2022/01/20 03:42:03;;;;;;;12.05;3.63;;;4.10;99.90;;;;;;6184645;23;20155;-89
2022/01/20 03:44:29;;;;;;;15.45;3.35;;;4.00;99.90;;;;;;6153145;23;20156;-87
2022/01/20 03:46:57;;;;;;;12.63;4.90;;;;;;;;;;6177080;23;20175;-89
2022/01/20 03:49:39;;;;;;;13.15;3.30;;;4.10;99.90;;;;;;6178525;23;20148;-88
2022/01/20 03:52:06;;;;;;;14.75;3.85;;;4.10;99.90;;;;;;6177089;23;20588;-89
2022/01/20 03:54:32;;;;;;;7.97;4.07;;;4.00;99.90;;;;;;6178839;23;20556;-89
2022/01/20 03:56:58;;;;;;;19.25;3.35;;;4.30;99.90;;;;;;6177873;23;20535;-88
2022/01/20 03:59:24;;;;;;;22.00;3.70;;;3.90;99.90;;;;;;6152426;23;20152;-88
2022/01/20 04:01:49;;;;;;;12.40;3.43;;;3.90;99.90;;;;;;6149970;23;20422;-89
2022/01/20 04:04:15;;;;;;;13.60;3.40;;;3.60;99.90;;;;;;6150462;23;20170;-88
2022/01/20 04:06:41;;;;;;;15.97;3.77;;;3.60;99.90;;;;;;6177267;23;20175;-89
2022/01/20 04:09:07;;;;;;;13.70;3.30;;;;;;;;;;6152299;23;20163;-89
2022/01/20 04:11:33;;;;;;;13.93;2.85;;;3.60;99.90;;;;;;6151300;23;20174;-89
2022/01/20 04:13:58;;;;;;;16.63;3.10;;;3.70;99.90;;;;;;6152412;23;20160;-90
2022/01/20 04:16:51;;;;;;;8.10;3.30;;;3.70;99.90;;;;;;6151462;23;20365;-89
2022/01/20 04:19:17;;;;;;;12.57;3.40;;;3.70;99.90;;;;;;6153048;23;20404;-89
2022/01/20 04:21:43;;;;;;;7.63;2.57;;;3.50;99.90;;;;;;6177659;23;20607;-90
2022/01/20 04:24:10;;;;;;;14.73;4.20;;;3.50;99.90;;;;;;6152706;23;20171;-89
2022/01/20 04:26:38;;;;;;;13.25;3.85;;;3.60;99.90;;;;;;6153135;23;20176;-89
2022/01/20 04:29:06;;;;;;;12.55;3.40;;;3.70;99.90;;;;;;6153167;23;20289;-88
2022/01/20 04:31:34;;;;;;;7.97;2.58;;;3.70;99.90;;;;;;6177386;23;20202;-89
2022/01/20 04:34:00;;;;;;;10.90;2.70;;;3.70;99.90;;;;;;6180149;23;20145;-89
2022/01/20 04:36:30;;;;;;;17.27;5.25;;;3.90;99.90;;;;;;6151202;23;20192;-90
2022/01/20 04:38:56;;;;;;;13.15;2.70;;;3.90;99.90;;;;;;6180676;23;20148;-90
2022/01/20 04:41:23;;;;;;;5.35;2.40;;;3.90;99.90;;;;;;6178804;23;20610;-86
2022/01/20 04:43:48;;;;;;;8.90;2.90;;;4.00;99.90;;;;;;6165773;23;20251;-90
2022/01/20 04:46:27;;;;;;;5.97;2.30;;;;;;;;;;6152688;23;20378;-89
2022/01/20 04:57:16;;;;;;;17.08;4.22;;;3.80;99.90;;;;;;6180855;23;20479;-88
2022/01/20 04:59:44;;;;;;;11.77;2.92;;;4.10;99.90;;;;;;6153053;23;20152;-89
2022/01/20 05:02:10;;;;;;;5.47;3.13;;;3.90;99.90;;;;;;6151039;23;20160;-88
2022/01/20 05:04:36;;;;;;;9.00;4.45;;;4.00;99.90;;;;;;6152002;23;20164;-88
2022/01/20 05:07:03;;;;;;;6.07;4.18;;;4.10;99.90;;;;;;6150398;23;20184;-88
2022/01/20 05:09:28;;;;;;;7.53;3.85;;;2.20;99.90;;;;;;6177736;23;20235;-88
2022/01/20 05:12:04;;;;;;;10.00;3.20;;;4.00;99.90;;;;;;6176946;23;20945;-88
2022/01/20 05:14:30;;;;;;;13.93;2.92;;;4.10;99.90;;;;;;6178115;23;20214;-83
2022/01/20 05:16:57;;;;;;;8.87;3.20;;;3.90;99.90;;;;;;6149290;23;20160;-87
2022/01/20 05:19:23;;;;;;;19.20;4.35;;;4.00;99.90;;;;;;6178169;23;20982;-87
2022/01/20 05:21:49;;;;;;;6.30;2.45;;;3.90;99.90;;;;;;6171633;23;20266;-87
2022/01/20 05:24:15;;;;;;;8.50;3.50;;;3.70;99.90;;;;;;6174622;23;20611;-88
2022/01/20 05:26:40;;;;;;;12.77;4.60;;;5.40;99.90;;;;;;6173545;23;20435;-87
2022/01/20 05:29:06;;;;;;;12.30;4.53;;;4.10;99.90;;;;;;6177013;23;20168;-87
2022/01/20 05:31:32;;;;;;;7.37;4.80;;;4.20;99.90;;;;;;6174127;23;20196;-87
2022/01/20 05:33:57;;;;;;;12.07;4.67;;;4.20;99.90;;;;;;6148393;23;20167;-88
2022/01/20 05:36:24;;;;;;;15.43;4.97;;;;;;;;;;6172257;23;20469;-87
2022/01/20 05:38:52;;;;;;;11.65;3.47;;;4.10;99.90;;;;;;6149353;23;20588;-88
2022/01/20 05:41:25;;;;;;;10.85;5.00;;;4.20;99.90;;;;;;6146642;23;20620;-84
2022/01/20 05:43:51;;;;;;;8.73;5.55;;;4.00;99.90;;;;;;6173954;23;20140;-87
2022/01/20 05:46:21;;;;;;;13.60;7.57;;;4.20;99.90;;;;;;6173045;23;20200;-87
2022/01/20 05:48:48;;;;;;;16.52;5.45;;;4.00;99.90;;;;;;6174173;23;20364;-79
2022/01/20 05:51:15;;;;;;;9.15;3.50;;;3.60;99.90;;;;;;6177518;23;20223;-84
2022/01/20 05:53:41;;;;;;;8.35;2.35;;;4.00;99.90;;;;;;6176500;23;20154;-86
2022/01/20 05:56:07;;;;;;;5.22;2.40;;;3.80;99.90;;;;;;6175114;23;20152;-85
2022/01/20 05:58:36;;;;;;;10.80;3.30;;;3.80;99.90;;;;;;6152054;23;20174;-86
2022/01/20 06:01:06;;;;;;;11.63;5.03;;;4.30;99.90;;;;;;6179346;23;20470;-84
2022/01/20 06:03:39;;;;;;;11.55;3.63;;;3.50;99.90;;;;;;6150867;23;20160;-87
2022/01/20 06:06:07;;;;;;;13.25;3.60;;;3.80;99.90;;;;;;6177434;23;20172;-89
2022/01/20 06:08:34;;;;;;;10.38;2.97;;;3.70;99.90;;;;;;6180215;23;20502;-88
2022/01/20 06:11:00;;;;;;;16.75;3.40;;;3.90;99.90;;;;;;6177587;23;20176;-88
2022/01/20 06:13:27;;;;;;;6.40;3.60;;;4.00;99.90;;;;;;6153056;23;20145;-86
2022/01/20 06:15:53;;;;;;;17.58;3.00;;;5.80;99.90;;;;;;6176940;23;20461;-85
2022/01/20 06:18:21;;;;;;;7.47;2.70;;;3.80;99.90;;;;;;6153227;23;20171;-88
2022/01/20 06:20:48;;;;;;;10.35;3.17;;;3.90;99.90;;;;;;6178719;23;20592;-88
2022/01/20 06:23:15;;;;;;;5.63;2.90;;;3.90;99.90;;;;;;6153306;23;20144;-82
2022/01/20 06:25:41;;;;;;;7.78;3.38;;;3.90;99.90;;;;;;6179420;23;20225;-88
2022/01/20 06:28:08;;;;;;;8.27;3.40;;;3.90;99.90;;;;;;6182649;23;20200;-88
2022/01/20 06:30:34;;;;;;;7.93;2.20;;;3.90;99.90;;;;;;6179329;23;20399;-84
2022/01/20 06:33:01;;;;;;;13.07;3.90;;;3.80;99.90;;;;;;6157606;23;20267;-87
2022/01/20 06:35:27;;;;;;;11.57;3.20;;;3.40;99.90;;;;;;6152446;23;20600;-84
2022/01/20 06:37:53;;;;;;;8.93;1.60;;;3.90;99.90;;;;;;6177726;23;20672;-88
2022/01/20 06:40:19;;;;;;;12.93;2.90;;;4.40;99.90;;;;;;6179871;23;20158;-88
2022/01/20 06:42:45;;;;;;;8.17;1.97;;;3.90;99.90;;;;;;6151820;23;20238;-86
2022/01/20 06:45:14;;;;;;;5.40;2.03;;;3.80;99.90;;;;;;6180227;23;20722;-87
2022/01/20 06:47:40;;;;;;;9.48;2.80;;;3.80;99.90;;;;;;6152059;23;20658;-87
2022/01/20 06:50:09;;;;;;;11.13;2.23;;;3.90;99.90;;;;;;6153395;23;20152;-85
2022/01/20 06:55:57;;;;;;;11.73;4.85;;;3.90;99.90;;;;;;6186146;23;20209;-84
2022/01/20 06:58:23;;;;;;;11.07;3.10;;;3.80;99.90;;;;;;6192100;23;20148;-86
2022/01/20 07:00:48;;;;;;;9.43;2.50;;;3.80;99.90;;;;;;6191343;23;20148;-83
2022/01/20 07:03:14;;;;;;;12.30;3.13;;;3.90;99.90;;;;;;6194096;23;20175;-89
2022/01/20 07:05:40;;;;;;;7.23;3.33;;;3.90;99.90;;;;;;6164287;23;20159;-87
2022/01/20 07:08:05;;;;;;;6.87;1.80;;;4.00;99.90;;;;;;6189509;23;20167;-80
2022/01/20 07:10:31;;;;;;;7.17;2.00;;;3.70;99.90;;;;;;6159047;23;20629;-90
2022/01/20 07:12:57;;;;;;;8.73;3.70;;;3.70;99.90;;;;;;6159433;23;20216;-83
2022/01/20 07:15:23;;;;;;;11.85;2.80;;;3.80;99.90;;;;;;6180722;23;20166;-89
2022/01/20 07:17:51;;;;;;;10.17;2.37;;;3.80;99.90;;;;;;6154783;23;20171;-87
2022/01/20 07:20:17;;;;;;;9.25;3.08;;;3.90;99.90;;;;;;6158196;23;20163;-87
2022/01/20 07:22:43;;;;;;;5.18;2.05;;;3.70;99.90;;;;;;6180040;23;20178;-89
2022/01/20 07:25:09;;;;;;;4.23;2.90;;;3.90;99.90;;;;;;6180940;23;20180;-84
2022/01/20 07:27:35;;;;;;;12.20;2.30;;;4.20;99.90;;;;;;6180516;23;20497;-88
2022/01/20 07:30:01;;;;;;;13.17;2.40;;;;;;;;;;6155366;23;20411;-89
2022/01/20 07:32:28;;;;;;;15.73;3.50;;;3.90;99.90;;;;;;6117982;23;20205;-82
2022/01/20 07:34:54;;;;;;;6.82;2.78;;;3.90;99.90;;;;;;6119562;23;20371;-84
2022/01/20 07:37:19;;;;;;;10.93;1.90;;;3.90;99.90;;;;;;6115298;23;20588;-85
2022/01/20 07:39:45;;;;;;;5.90;2.53;;;3.80;99.90;;;;;;6115134;23;20175;-86
2022/01/20 07:42:11;;;;;;;6.23;3.00;;;;;;;;;;6115408;23;20169;-86
2022/01/20 07:44:37;;;;;;;11.32;2.58;;;3.90;99.90;;;;;;6115843;23;20157;-82
2022/01/20 07:47:03;;;;;;;8.00;2.30;;;3.80;99.90;;;;;;6112979;23;20195;-84
2022/01/20 07:49:29;;;;;;;7.85;2.47;;;3.80;99.90;;;;;;6114737;23;20150;-85
2022/01/20 07:51:55;;;;;;;12.30;3.37;;;3.80;99.90;;;;;;6113234;23;20202;-83
2022/01/20 07:54:21;;;;;;;3.57;2.37;;;3.70;99.90;;;;;;6111877;23;20416;-85
2022/01/20 07:56:49;;;;;;;14.25;2.40;;;4.00;99.90;;;;;;6114481;23;20454;-87
2022/01/20 07:59:15;;;;;;;9.75;2.80;;;4.10;99.90;;;;;;6117667;23;20593;-86
2022/01/20 08:01:40;;;;;;;7.18;3.00;;;4.00;99.90;;;;;;6116511;23;20168;-85
2022/01/20 08:04:06;;;;;;;5.40;1.77;;;6.20;99.90;;;;;;6118728;23;20197;-84
2022/01/20 08:06:31;;;;;;;6.60;2.10;;;3.90;99.90;;;;;;6116726;23;20192;-86
2022/01/20 08:08:57;;;;;;;9.53;1.53;;;4.00;99.90;;;;;;6116932;23;20141;-86
2022/01/20 08:11:23;;;;;;;14.23;2.53;;;3.40;99.90;;;;;;6115753;23;20506;-87
2022/01/20 08:13:49;;;;;;;4.53;2.00;;;4.90;99.90;;;;;;6115791;23;20577;-83
2022/01/20 08:16:15;;;;;;;4.13;2.17;;;3.80;99.90;;;;;;6115381;23;20621;-86
2022/01/20 08:18:40;;;;;;;9.73;2.63;;;3.80;99.90;;;;;;6115270;23;20476;-86
2022/01/20 08:21:06;;;;;;;10.93;2.80;;;5.30;99.90;;;;;;6114043;23;20153;-85
2022/01/20 08:23:32;;;;;;;5.80;2.73;;;3.70;99.90;;;;;;6116036;23;20461;-85
2022/01/20 08:25:58;;;;;;;11.17;2.00;;;3.80;99.90;;;;;;6112864;23;20233;-86
2022/01/20 08:28:23;;;;;;;6.00;2.50;;;3.70;99.90;;;;;;6115592;23;20382;-86
2022/01/20 08:30:53;;;;;;;8.23;3.70;;;3.70;99.90;;;;;;6124094;23;20603;-87
2022/01/20 08:33:21;;;;;;;4.43;2.10;;;4.30;99.90;;;;;;6174002;23;20155;-87
2022/01/20 08:35:47;;;;;;;10.88;2.55;;;3.50;99.90;;;;;;6177993;23;20182;-86
2022/01/20 08:38:13;;;;;;;6.43;2.17;;;4.00;99.90;;;;;;6177914;23;20183;-85
2022/01/20 08:40:38;;;;;;;9.30;2.57;;;4.10;99.90;;;;;;6178509;23;20215;-84
2022/01/20 08:43:06;;;;;;;7.07;2.97;;;4.30;99.90;;;;;;6176179;23;20387;-85
2022/01/20 08:45:33;;;;;;;7.60;2.38;;;4.50;99.90;;;;;;6186245;23;20154;-85
2022/01/20 08:48:00;;;;;;;18.15;2.55;;;4.60;99.90;;;;;;6182965;23;20180;-85
2022/01/20 08:50:28;;;;;;;4.43;2.30;;;4.60;99.90;;;;;;6178136;23;20160;-85
2022/01/20 08:52:55;;;;;;;9.10;3.20;;;4.60;99.90;;;;;;6149826;23;20183;-85
2022/01/20 08:55:28;;;;;;;8.50;2.13;;;4.60;99.90;;;;;;6178299;23;20160;-84
2022/01/20 08:57:56;;;;;;;9.48;2.08;;;4.60;99.90;;;;;;6178794;23;20144;-85
2022/01/20 09:00:25;;;;;;;9.55;2.28;;;4.50;99.90;;;;;;6151367;23;20455;-86
2022/01/20 09:02:51;;;;;;;5.35;2.88;;;4.50;99.90;;;;;;6175624;23;20144;-84
2022/01/20 09:05:17;;;;;;;4.50;2.50;;;4.70;99.90;;;;;;6177451;23;20611;-87
2022/01/20 09:07:43;;;;;;;7.60;3.70;;;4.90;99.90;;;;;;6176029;23;20180;-83
2022/01/20 09:10:17;;;;;;;6.10;2.13;;;4.90;99.90;;;;;;6150744;23;20392;-83
2022/01/20 09:15:29;;;;;;;13.60;2.50;;;5.10;99.90;;;;;;6176950;23;20159;-83
2022/01/20 09:18:08;;;;;;;4.43;2.60;;;5.50;99.90;;;;;;6176373;23;20874;-85
2022/01/20 09:20:35;;;;;;;10.48;2.70;;;5.20;99.90;;;;;;6178121;23;20564;-84
2022/01/20 09:23:02;;;;;;;9.00;3.25;;;5.00;99.90;;;;;;6175343;23;20199;-82
2022/01/20 09:25:27;;;;;;;7.35;2.55;;;6.60;99.90;;;;;;6177597;23;20183;-85
2022/01/20 09:27:55;;;;;;;12.17;2.77;;;4.80;99.90;;;;;;6175361;23;20180;-85
2022/01/20 09:30:23;;;;;;;4.10;1.80;;;4.70;99.90;;;;;;6177366;23;20454;-85
2022/01/20 09:33:12;;;;;;;7.18;1.85;;;5.20;99.90;;;;;;6174885;23;20263;-85
2022/01/20 09:35:40;;;;;;;10.35;3.00;;;5.30;99.90;;;;;;6172218;23;20156;-83
2022/01/20 09:38:06;;;;;;;7.55;2.72;;;5.70;99.90;;;;;;6175123;23;20166;-79
2022/01/20 09:40:36;;;;;;;4.55;1.90;;;6.70;99.90;;;;;;6171957;23;20217;-83
2022/01/20 09:43:03;;;;;;;8.07;2.38;;;6.90;99.90;;;;;;6173923;23;20155;-85
2022/01/20 09:45:29;;;;;;;6.63;2.10;;;6.70;99.90;;;;;;6171741;23;20156;-84
2022/01/20 09:47:55;;;;;;;6.10;2.25;;;6.10;99.90;;;;;;6173372;23;20199;-88
2022/01/20 09:50:22;;;;;;;4.60;1.70;;;6.20;99.90;;;;;;6172240;23;20156;-85
2022/01/20 09:52:50;;;;;;;5.95;3.08;;;4.40;99.90;;;;;;6174043;23;20746;-86
2022/01/20 09:55:18;;;;;;;3.25;1.42;;;5.90;99.90;;;;;;6171980;23;20459;-85
2022/01/20 09:57:44;;;;;;;8.05;2.80;;;5.80;99.90;;;;;;6173683;23;20618;-84
2022/01/20 10:00:13;;;;;;;3.43;1.53;;;7.70;99.90;;;;;;6171246;23;20183;-85
2022/01/20 10:02:56;;;;;;;4.38;2.42;;;5.70;99.90;;;;;;6173376;23;20741;-81
2022/01/20 10:05:30;;;;;;;5.68;1.98;;;5.70;99.90;;;;;;6172014;23;20175;-86
2022/01/20 10:08:08;;;;;;;5.88;2.00;;;6.20;99.90;;;;;;6146591;23;20266;-85
2022/01/20 10:11:17;;;;;;;4.15;1.70;;;5.50;99.90;;;;;;6144776;23;20493;-85
2022/01/20 10:13:43;;;;;;;9.77;2.83;;;4.70;99.90;;;;;;6161149;23;20170;-85
2022/01/20 10:16:14;;;;;;;7.30;2.67;;;5.60;99.90;;;;;;6171807;23;20152;-85
2022/01/20 10:19:00;;;;;;;10.82;1.85;;;5.30;99.90;;;;;;6122402;23;20480;-84
2022/01/20 10:21:33;;;;;;;5.97;2.38;;;6.30;99.90;;;;;;6175371;23;20382;-84
2022/01/20 10:24:12;;;;;;;5.25;2.20;;;5.20;99.90;;;;;;6145511;23;20496;-85
2022/01/20 10:26:39;;;;;;;8.00;2.53;;;5.60;99.90;;;;;;6172713;23;20634;-85
2022/01/20 10:29:14;;;;;;;11.38;2.88;;;5.80;99.90;;;;;;6172124;23;20595;-85
2022/01/20 10:31:51;;;;;;;7.18;2.45;;;6.00;99.90;;;;;;6149850;23;20701;-85
2022/01/20 10:34:28;;;;;;;11.52;1.92;;;5.70;99.90;;;;;;6173120;23;20174;-86
2022/01/20 10:36:55;;;;;;;6.10;1.73;;;5.30;99.90;;;;;;6177135;23;20132;-84
2022/01/20 10:39:38;;;;;;;3.63;1.95;;;5.50;99.90;;;;;;6172426;23;20241;-86
2022/01/20 10:42:07;;;;;;;5.10;2.60;;;5.60;99.90;;;;;;6175552;23;20472;-85
2022/01/20 10:44:46;;;;;;;6.57;2.17;;;5.00;99.90;;;;;;6174086;23;20223;-84
2022/01/20 10:47:16;;;;;;;7.55;2.33;;;5.30;99.90;;;;;;6174577;23;20218;-84
2022/01/20 10:49:46;;;;;;;3.72;1.88;;;5.40;99.90;;;;;;6174458;23;20568;-80
2022/01/20 10:52:16;;;;;;;6.53;2.22;;;6.40;99.90;;;;;;6176434;23;20516;-84
2022/01/20 10:54:44;;;;;;;11.88;3.40;;;5.50;99.90;;;;;;6173279;23;20144;-83
2022/01/20 10:57:11;;;;;;;5.80;1.73;;;5.60;99.90;;;;;;6177102;23;20160;-85
2022/01/20 10:59:59;;;;;;;6.35;3.08;;;7.90;99.90;;;;;;6151055;23;20244;-85
2022/01/20 11:02:29;;;;;;;8.05;2.58;;;9.40;99.90;;;;;;6181773;23;20233;-82
2022/01/20 11:04:59;;;;;;;5.75;2.40;;;5.10;99.90;;;;;;6175678;23;20156;-84
2022/01/20 11:07:25;;;;;;;11.18;2.75;;;6.90;99.90;;;;;;6174649;23;20485;-81
2022/01/20 11:10:13;;;;;;;8.95;3.05;;;6.30;99.90;;;;;;6172899;23;20164;-84
2022/01/20 11:12:39;;;;;;;7.72;2.30;;;6.20;99.90;;;;;;6174376;23;20171;-80
2022/01/20 11:15:10;;;;;;;4.70;1.90;;;5.80;99.90;;;;;;6172395;23;20485;-84
2022/01/20 11:17:37;;;;;;;3.25;2.30;;;5.80;99.90;;;;;;6174269;23;20325;-83
2022/01/20 11:20:05;;;;;;;4.97;2.10;;;5.80;99.90;;;;;;6146678;23;20156;-83
2022/01/20 11:22:30;;;;;;;6.90;2.35;;;5.80;99.90;;;;;;6147522;23;20250;-83
2022/01/20 11:25:03;;;;;;;3.93;2.67;;;5.50;99.90;;;;;;6173504;23;20200;-83
2022/01/20 11:27:43;;;;;;;10.27;2.35;;;4.90;99.90;;;;;;6174827;23;20270;-85
2022/01/20 11:30:26;;;;;;;6.82;2.00;;;5.40;99.90;;;;;;6147012;23;20183;-82
2022/01/20 11:33:02;;;;;;;12.93;2.63;;;5.10;99.90;;;;;;6174969;23;20190;-84
2022/01/20 11:35:44;;;;;;;8.75;2.58;;;5.40;99.90;;;;;;6172718;23;20251;-84
2022/01/20 11:38:13;;;;;;;10.25;2.53;;;5.40;99.90;;;;;;6173989;23;20642;-85
2022/01/20 11:40:55;;;;;;;8.48;2.55;;;5.40;99.90;;;;;;6177057;23;20160;-82
2022/01/20 11:43:43;;;;;;;10.27;2.97;;;4.70;99.90;;;;;;6177825;23;20144;-85
2022/01/20 11:46:35;;;;;;;7.32;2.72;;;5.30;99.90;;;;;;6179081;23;20199;-85
2022/01/20 11:49:05;;;;;;;3.92;1.60;;;4.50;99.90;;;;;;6147738;23;20148;-85
2022/01/20 11:51:50;;;;;;;8.43;2.88;;;5.40;99.90;;;;;;6176085;23;20533;-85
2022/01/20 11:54:34;;;;;;;8.82;2.63;;;5.50;99.90;;;;;;6147760;23;20614;-85
2022/01/20 11:57:28;;;;;;;7.53;2.03;;;5.40;99.90;;;;;;6149378;23;20152;-85
2022/01/20 12:00:00;;;;;;;2.50;2.35;;;5.90;99.90;;;;;;6138612;23;20451;-85
2022/01/20 12:02:37;;;;;;;6.20;2.50;;;6.20;99.90;;;;;;6174308;23;20527;-86
2022/01/20 12:05:17;;;;;;;7.45;2.10;;;7.00;99.90;;;;;;6173713;23;20167;-86
2022/01/20 12:07:43;;;;;;;4.05;2.45;;;6.80;99.90;;;;;;6148663;23;20562;-83
2022/01/20 12:10:14;;;;;;;8.57;2.92;;;7.70;99.90;;;;;;6174057;23;20152;-84
2022/01/20 12:12:43;;;;;;;5.22;2.30;;;7.20;99.90;;;;;;6145570;23;20164;-85
2022/01/20 12:15:35;;;;;;;12.05;2.78;;;8.30;99.90;;;;;;6147525;23;20740;-86
2022/01/20 12:18:05;;;;;;;7.88;3.05;;;6.70;99.90;;;;;;6180228;23;20486;-85
2022/01/20 12:20:44;;;;;;;9.98;2.88;;;6.70;99.90;;;;;;6149958;23;20155;-86
2022/01/20 12:23:24;;;;;;;12.65;2.70;;;7.10;99.90;;;;;;6176620;23;20135;-85
2022/01/20 12:25:50;;;;;;;5.93;2.92;;;;;;;;;;6148064;23;20147;-85
2022/01/20 12:28:17;;;;;;;6.43;2.20;;;6.60;99.90;;;;;;6149275;23;20167;-85
2022/01/20 12:30:51;;;;;;;7.97;2.42;;;8.00;99.90;;;;;;6147649;23;20306;-84
2022/01/20 12:33:24;;;;;;;8.52;3.22;;;5.40;99.90;;;;;;6177185;23;20233;-83
2022/01/20 12:35:55;;;;;;;11.98;2.58;;;5.50;99.90;;;;;;6175991;23;20486;-85
2022/01/20 12:38:41;;;;;;;5.22;2.70;;;6.00;99.90;;;;;;6151020;23;20184;-85
2022/01/20 12:41:16;;;;;;;12.82;3.90;;;5.40;99.90;;;;;;6147943;23;20148;-84
2022/01/20 12:43:48;;;;;;;3.65;2.70;;;6.50;99.90;;;;;;6182970;23;20148;-84
2022/01/20 12:46:17;;;;;;;5.88;3.00;;;5.50;99.90;;;;;;6150776;23;20190;-83
2022/01/20 12:49:08;;;;;;;3.20;3.00;;;6.10;99.90;;;;;;6148947;23;20200;-84
2022/01/20 12:51:58;;;;;;;;;;;;;;;;;;;;;
2022/01/20 12:54:52;;;;;;;5.78;2.60;;;6.00;99.90;;;;;;6175061;23;20262;-84
2022/01/20 12:57:19;;;;;;;10.23;3.20;;;5.90;99.90;;;;;;6151818;23;20190;-85
2022/01/20 12:59:46;;;;;;;10.32;2.40;;;5.40;99.90;;;;;;6177029;23;20602;-84
2022/01/20 13:02:20;;;;;;;2.65;1.52;;;7.10;99.90;;;;;;6178261;23;20151;-83
2022/01/20 13:05:02;;;;;;;3.75;1.85;;;4.80;99.90;;;;;;6176255;23;20167;-84
2022/01/20 13:07:30;;;;;;;15.73;3.53;;;4.80;99.90;;;;;;6150449;23;20192;-84
2022/01/20 13:10:07;;;;;;;5.13;2.47;;;4.20;99.90;;;;;;6149504;23;20504;-85
2022/01/20 13:12:38;;;;;;;6.70;2.17;;;4.40;99.90;;;;;;6176929;23;20152;-84
2022/01/20 13:15:18;;;;;;;6.47;2.33;;;4.30;99.90;;;;;;6149862;23;20242;-79
2022/01/20 13:17:45;;;;;;;3.03;1.92;;;4.30;99.90;;;;;;6177759;23;20500;-84
2022/01/20 13:20:21;;;;;;;2.53;2.33;;;4.30;99.90;;;;;;6149150;23;20162;-85
2022/01/20 13:22:56;;;;;;;2.42;2.22;;;4.30;99.90;;;;;;6152039;23;20544;-84
2022/01/20 13:25:27;;;;;;;6.25;1.42;;;4.80;99.90;;;;;;6179598;23;20147;-84
2022/01/20 13:28:02;;;;;;;2.40;1.52;;;4.70;99.90;;;;;;6157965;23;20179;-84
2022/01/20 13:33:06;;;;;;;6.38;3.00;;;5.10;99.90;;;;;;6135213;23;20565;-90
2022/01/20 13:35:48;;;;;;;0.75;0.57;;;6.60;99.90;;;;;;6105327;23;20313;-90
2022/01/20 13:38:20;;;;;;;1.63;1.17;;;11.10;99.90;;;;;;6157414;23;20180;-88
2022/01/20 13:40:47;;;;;;;3.53;1.67;;;8.10;99.90;;;;;;6127515;23;20168;-89
2022/01/20 13:51:59;;;;;;;3.28;2.90;;;9.40;99.90;;;;;;6114278;23;20234;-85
2022/01/20 13:54:43;;;;;;;3.00;2.77;;;9.60;99.90;;;;;;6100105;23;20195;-86
2022/01/20 13:57:11;;;;;;;5.30;2.60;;;11.60;99.90;;;;;;6112858;23;20443;-85
2022/01/20 14:00:15;;;;;;;;;;;;;;;;;;;;;
2022/01/20 14:02:51;;;;;;;2.30;2.10;;;8.20;99.90;;;;;;6114467;23;20240;-87
2022/01/20 14:05:19;;;;;;;4.28;2.75;;;7.10;99.90;;;;;;6114400;23;20624;-85
2022/01/20 14:07:54;;;;;;;3.60;2.97;;;6.60;99.90;;;;;;6115196;23;20196;-86
2022/01/20 14:10:23;;;;;;;4.88;3.15;;;6.50;99.90;;;;;;6117165;23;20157;-84
2022/01/20 14:12:59;;;;;;;3.28;3.05;;;6.80;99.90;;;;;;6117877;23;20150;-85
2022/01/20 14:15:50;;;;;;;3.22;2.63;;;5.00;99.90;;;;;;6119258;23;20161;-85
2022/01/20 14:18:24;;;;;;;3.92;2.80;;;2.60;99.90;;;;;;6115920;23;20161;-85
2022/01/20 14:20:57;;;;;;;7.03;2.45;;;5.90;99.90;;;;;;6120978;23;20157;-85
2022/01/20 14:23:23;;;;;;;7.80;2.75;;;6.80;99.90;;;;;;6118244;23;20239;-88
2022/01/20 14:25:52;;;;;;;5.70;3.10;;;6.20;99.90;;;;;;6121558;23;20161;-86
2022/01/20 14:28:23;;;;;;;4.90;3.10;;;8.30;99.90;;;;;;6118760;23;20195;-86
2022/01/20 14:30:57;;;;;;;12.77;3.33;;;6.70;99.90;;;;;;6120903;23;20345;-85
2022/01/20 14:33:26;;;;;;;5.30;2.30;;;8.40;99.90;;;;;;6117119;23;20172;-87